createdAt,value
2019-04-14T00:00:03.659Z,72.89
2019-04-14T00:02:40.633Z,72.55
2019-04-14T00:05:13.069Z,74.65
2019-04-14T00:07:44.970Z,73.92
2019-04-14T00:10:16.492Z,73.77
2019-04-14T00:12:47.317Z,75.30
2019-04-14T00:15:27.761Z,73.08
2019-04-14T00:17:50.651Z,74.35
2019-04-14T00:20:21.373Z,74.07
2019-04-14T00:22:55.603Z,74.10
2019-04-14T00:25:26.329Z,74.01
2019-04-14T00:28:03.047Z,74.16
2019-04-14T00:30:33.834Z,74.32
2019-04-14T00:33:08.380Z,74.54
2019-04-14T00:35:40.692Z,75.22
2019-04-14T00:38:15.637Z,73.51
2019-04-14T00:41:09.428Z,75.76
2019-04-14T00:43:45.824Z,76.07
2019-04-14T00:46:25.443Z,76.48
2019-04-14T00:49:09.300Z,74.01
2019-04-14T00:51:42.442Z,74.40
2019-04-14T00:54:17.439Z,74.21
2019-04-14T00:56:59.340Z,75.17
2019-04-14T00:59:31.127Z,75.25
2019-04-14T01:02:03.423Z,75.26
2019-04-14T01:04:42.420Z,73.82
2019-04-14T01:07:19.537Z,74.65
2019-04-14T01:10:05.987Z,73.70
2019-04-14T01:12:36.749Z,74.17
2019-04-14T01:15:07.610Z,73.75
2019-04-14T01:17:39.297Z,73.55
2019-04-14T01:20:12.386Z,73.24
2019-04-14T01:22:51.005Z,72.84
2019-04-14T01:25:56.468Z,73.07
2019-04-14T01:28:27.111Z,72.53
2019-04-14T01:31:38.656Z,72.66
2019-04-14T01:34:15.251Z,72.88
2019-04-14T01:36:51.829Z,73.47
2019-04-14T01:39:42.169Z,73.02
2019-04-14T01:42:13.789Z,72.91
2019-04-14T01:44:54.740Z,72.72
2019-04-14T01:47:25.474Z,71.48
2019-04-14T01:49:57.281Z,71.58
2019-04-14T01:52:41.842Z,72.14
2019-04-14T01:55:18.385Z,72.85
2019-04-14T01:58:07.886Z,72.17
2019-04-14T02:00:44.411Z,71.79
2019-04-14T02:03:17.066Z,72.04
2019-04-14T02:05:47.813Z,72.38
2019-04-14T02:08:19.579Z,72.17
2019-04-14T02:10:51.781Z,71.70
2019-04-14T02:13:22.796Z,71.31
2019-04-14T02:15:53.504Z,70.65
2019-04-14T02:18:25.100Z,71.62
2019-04-14T02:20:55.929Z,71.34
2019-04-14T02:23:27.897Z,71.42
2019-04-14T02:26:02.280Z,70.43
2019-04-14T02:28:37.672Z,71.58
2019-04-14T02:31:25.074Z,72.63
2019-04-14T02:34:07.981Z,72.69
2019-04-14T02:36:52.389Z,73.14
2019-04-14T02:39:15.602Z,72.51
2019-04-14T02:41:56.742Z,72.78
2019-04-14T02:46:53.305Z,71.97
2019-04-14T02:49:18.912Z,72.18
2019-04-14T02:51:58.514Z,72.48
2019-04-14T02:54:36.953Z,73.47
2019-04-14T03:04:45.590Z,73.91
2019-04-14T03:09:52.438Z,73.99
2019-04-14T03:12:31.662Z,74.34
2019-04-14T03:17:47.230Z,71.85
2019-04-14T03:20:32.425Z,72.03
2019-04-14T03:23:14.943Z,72.54
2019-04-14T03:25:37.599Z,72.93
2019-04-14T03:36:58.395Z,73.87
2019-04-14T03:39:00.834Z,75.00
2019-04-14T03:43:54.283Z,73.09
2019-04-14T03:49:07.434Z,73.18
2019-04-14T03:51:44.753Z,73.58
2019-04-14T03:54:20.271Z,73.09
2019-04-14T03:57:01.929Z,72.91
2019-04-14T03:59:32.686Z,72.67
2019-04-14T04:02:03.449Z,73.09
2019-04-14T04:04:34.045Z,73.68
2019-04-14T04:07:32.321Z,72.28
2019-04-14T04:10:05.127Z,73.06
2019-04-14T04:12:35.855Z,72.51
2019-04-14T04:15:19.721Z,71.88
2019-04-14T04:18:19.881Z,72.46
2019-04-14T04:20:58.818Z,71.88
2019-04-14T04:23:53.413Z,73.44
2019-04-14T04:26:34.777Z,73.51
2019-04-14T04:29:13.597Z,73.44
2019-04-14T04:32:08.207Z,73.68
2019-04-14T04:34:44.582Z,73.10
2019-04-14T04:37:21.472Z,73.44
2019-04-14T04:40:02.904Z,72.83
2019-04-14T04:42:33.630Z,72.43
2019-04-14T04:45:10.409Z,72.19
2019-04-14T04:47:45.280Z,72.29
2019-04-14T04:50:17.077Z,72.24
2019-04-14T04:52:47.918Z,72.42
2019-04-14T04:55:20.529Z,72.26
2019-04-14T04:57:52.326Z,72.60
2019-04-14T05:00:23.038Z,72.57
2019-04-14T05:02:54.976Z,72.21
2019-04-14T05:06:02.756Z,72.33
2019-04-14T05:08:34.719Z,72.69
2019-04-14T05:11:12.149Z,72.33
2019-04-14T05:13:44.677Z,72.74
2019-04-14T05:16:15.239Z,71.74
2019-04-14T05:18:46.345Z,71.60
2019-04-14T05:21:19.238Z,71.76
2019-04-14T05:23:49.931Z,72.40
2019-04-14T05:26:20.538Z,71.44
2019-04-14T05:28:57.112Z,71.99
2019-04-14T05:31:38.302Z,74.34
2019-04-14T05:34:08.939Z,73.80
2019-04-14T05:36:41.617Z,72.93
2019-04-14T05:39:13.494Z,73.32
2019-04-14T05:41:58.114Z,72.37
2019-04-14T05:44:25.316Z,72.93
2019-04-14T05:46:56.000Z,72.47
2019-04-14T05:49:54.473Z,70.86
2019-04-14T05:52:28.144Z,71.45
2019-04-14T05:55:03.049Z,71.23
2019-04-14T05:57:46.650Z,69.99
2019-04-14T06:00:19.070Z,70.13
2019-04-14T06:03:02.133Z,70.32
2019-04-14T06:05:33.957Z,70.98
2019-04-14T06:08:05.868Z,70.67
2019-04-14T06:10:36.556Z,70.49
2019-04-14T06:13:12.790Z,71.18
2019-04-14T06:15:52.284Z,71.18
2019-04-14T06:18:27.919Z,71.67
2019-04-14T06:21:02.092Z,71.65
2019-04-14T06:23:33.830Z,70.59
2019-04-14T06:26:04.529Z,71.10
2019-04-14T06:28:35.129Z,71.02
2019-04-14T06:31:10.499Z,68.65
2019-04-14T06:33:58.081Z,68.97
2019-04-14T06:36:30.426Z,68.16
2019-04-14T06:39:03.763Z,69.25
2019-04-14T06:41:34.464Z,67.28
2019-04-14T06:44:05.252Z,67.17
2019-04-14T06:46:36.028Z,67.55
2019-04-14T06:49:06.709Z,67.82
2019-04-14T06:51:37.468Z,66.68
2019-04-14T06:54:13.108Z,66.85
2019-04-14T06:56:49.860Z,67.39
2019-04-14T06:59:20.626Z,67.41
2019-04-14T07:01:53.335Z,66.79
2019-04-14T07:04:47.217Z,66.22
2019-04-14T07:07:19.855Z,66.48
2019-04-14T07:09:56.531Z,66.95
2019-04-14T07:12:37.995Z,66.16
2019-04-14T07:15:08.675Z,66.94
2019-04-14T07:17:43.649Z,67.09
2019-04-14T07:20:14.604Z,66.69
2019-04-14T07:22:49.361Z,67.63
2019-04-14T07:25:20.251Z,68.34
2019-04-14T07:27:50.949Z,67.38
2019-04-14T07:30:39.567Z,67.42
2019-04-14T07:33:13.136Z,68.14
2019-04-14T07:35:54.956Z,66.92
2019-04-14T07:38:43.566Z,67.61
2019-04-14T07:41:18.722Z,68.24
2019-04-14T07:43:51.032Z,67.35
2019-04-14T07:46:44.961Z,66.85
2019-04-14T07:49:32.948Z,66.61
2019-04-14T07:52:27.808Z,65.91
2019-04-14T07:55:06.869Z,64.83
2019-04-14T07:57:39.394Z,64.66
2019-04-14T08:00:11.968Z,63.24
2019-04-14T08:03:02.460Z,62.03
2019-04-14T08:05:35.983Z,63.18
2019-04-14T08:08:06.970Z,62.58
2019-04-14T08:10:43.630Z,63.23
2019-04-14T08:13:14.341Z,62.91
2019-04-14T08:15:46.289Z,62.40
2019-04-14T08:18:17.113Z,61.42
2019-04-14T08:20:47.828Z,61.58
2019-04-14T08:23:19.603Z,59.69
2019-04-14T08:25:50.282Z,61.04
2019-04-14T08:28:24.199Z,59.48
2019-04-14T08:30:54.825Z,60.17
2019-04-14T08:33:31.753Z,60.67
2019-04-14T08:36:13.231Z,60.89
2019-04-14T08:38:43.780Z,60.28
2019-04-14T08:41:14.571Z,61.41
2019-04-14T08:43:55.784Z,60.58
2019-04-14T08:46:36.990Z,59.50
2019-04-14T08:49:11.282Z,58.85
2019-04-14T08:51:47.351Z,57.82
2019-04-14T08:54:26.653Z,58.09
2019-04-14T08:57:06.499Z,57.54
2019-04-14T09:00:07.524Z,57.09
2019-04-14T09:02:45.949Z,56.00
2019-04-14T09:05:39.974Z,56.43
2019-04-14T09:08:20.189Z,54.46
2019-04-14T09:10:53.508Z,55.64
2019-04-14T09:13:26.317Z,56.43
2019-04-14T09:15:56.944Z,55.63
2019-04-14T09:18:31.073Z,56.11
2019-04-14T09:21:09.257Z,57.11
2019-04-14T09:23:39.992Z,54.68
2019-04-14T09:26:12.842Z,53.52
2019-04-14T09:28:43.511Z,53.60
2019-04-14T09:31:15.248Z,53.05
2019-04-14T09:33:45.884Z,52.26
2019-04-14T09:36:16.636Z,53.18
2019-04-14T09:38:47.340Z,53.33
2019-04-14T09:41:18.022Z,53.59
2019-04-14T09:43:48.724Z,54.37
2019-04-14T09:46:19.393Z,52.32
2019-04-14T09:48:50.093Z,52.23
2019-04-14T09:51:20.689Z,51.48
2019-04-14T09:53:51.314Z,51.63
2019-04-14T09:56:22.093Z,49.42
2019-04-14T09:58:52.834Z,49.73
2019-04-14T10:01:24.478Z,48.67
2019-04-14T10:03:56.169Z,48.68
2019-04-14T10:06:26.933Z,48.59
2019-04-14T10:08:59.558Z,47.27
2019-04-14T10:11:30.326Z,47.18
2019-04-14T10:14:01.022Z,46.62
2019-04-14T10:16:31.781Z,47.05
2019-04-14T10:19:02.468Z,46.17
2019-04-14T10:21:39.039Z,45.93
2019-04-14T10:24:09.743Z,45.75
2019-04-14T10:26:40.482Z,45.29
2019-04-14T10:29:11.243Z,45.29
2019-04-14T10:31:41.819Z,44.38
2019-04-14T10:34:12.496Z,44.24
2019-04-14T10:36:43.059Z,44.53
2019-04-14T10:39:13.721Z,44.18
2019-04-14T10:41:44.420Z,44.83
2019-04-14T10:44:15.084Z,44.21
2019-04-14T10:46:45.850Z,44.66
2019-04-14T10:49:16.837Z,43.53
2019-04-14T10:51:54.407Z,44.21
2019-04-14T10:54:37.392Z,44.06
2019-04-14T10:57:08.057Z,42.43
2019-04-14T10:59:38.806Z,43.19
2019-04-14T11:02:09.507Z,42.81
2019-04-14T11:04:40.492Z,43.24
2019-04-14T11:07:12.730Z,42.73
2019-04-14T11:09:53.776Z,41.64
2019-04-14T11:12:24.292Z,41.51
2019-04-14T11:14:54.978Z,42.23
2019-04-14T11:17:25.668Z,41.44
2019-04-14T11:19:56.409Z,41.08
2019-04-14T11:22:27.115Z,40.99
2019-04-14T11:25:01.025Z,40.41
2019-04-14T11:27:38.886Z,40.33
2019-04-14T11:30:13.218Z,40.08
2019-04-14T11:32:48.561Z,39.99
2019-04-14T11:35:23.528Z,40.60
2019-04-14T11:37:55.803Z,40.99
2019-04-14T11:40:28.151Z,40.58
2019-04-14T11:43:02.067Z,40.02
2019-04-14T11:45:32.773Z,39.79
2019-04-14T11:48:03.490Z,40.30
2019-04-14T11:50:34.657Z,38.99
2019-04-14T11:53:11.499Z,37.32
2019-04-14T11:55:42.206Z,38.15
2019-04-14T11:58:12.937Z,38.15
2019-04-14T12:00:45.518Z,36.98
2019-04-14T12:03:26.739Z,36.12
2019-04-14T12:06:17.258Z,36.18
2019-04-14T12:08:49.473Z,35.89
2019-04-14T12:11:20.194Z,37.79
2019-04-14T12:13:50.822Z,37.37
2019-04-14T12:16:23.672Z,37.34
2019-04-14T12:18:54.390Z,35.85
2019-04-14T12:21:25.070Z,36.46
2019-04-14T12:23:55.741Z,36.60
2019-04-14T12:26:26.637Z,36.17
2019-04-14T12:29:00.117Z,36.29
2019-04-14T12:31:30.888Z,36.16
2019-04-14T12:34:03.686Z,36.06
2019-04-14T12:36:42.674Z,36.65
2019-04-14T12:39:21.767Z,34.88
2019-04-14T12:41:58.793Z,35.40
2019-04-14T12:44:40.184Z,36.07
2019-04-14T12:47:29.909Z,35.09
2019-04-14T12:50:05.129Z,35.95
2019-04-14T12:52:35.877Z,36.02
2019-04-14T12:55:11.554Z,35.64
2019-04-14T12:57:46.875Z,35.38
2019-04-14T13:00:35.548Z,36.79
2019-04-14T13:03:06.220Z,36.76
2019-04-14T13:05:44.384Z,35.40
2019-04-14T13:08:16.412Z,35.55
2019-04-14T13:10:51.047Z,36.34
2019-04-14T13:13:27.344Z,36.72
2019-04-14T13:15:59.038Z,36.23
2019-04-14T13:18:29.728Z,36.23
2019-04-14T13:21:07.367Z,37.19
2019-04-14T13:23:38.090Z,36.97
2019-04-14T13:26:08.726Z,36.31
2019-04-14T13:28:39.500Z,36.67
2019-04-14T13:31:13.158Z,37.00
2019-04-14T13:33:43.854Z,37.24
2019-04-14T13:36:14.604Z,36.94
2019-04-14T13:38:45.263Z,37.11
2019-04-14T13:41:15.895Z,35.84
2019-04-14T13:43:52.417Z,35.88
2019-04-14T13:46:25.145Z,36.10
2019-04-14T13:48:56.853Z,36.38
2019-04-14T13:51:27.654Z,36.96
2019-04-14T13:54:01.716Z,37.29
2019-04-14T13:56:46.848Z,36.78
2019-04-14T13:59:17.544Z,36.31
2019-04-14T14:01:56.261Z,37.10
2019-04-14T14:04:32.218Z,36.27
2019-04-14T14:07:03.347Z,36.67
2019-04-14T14:09:34.107Z,37.03
2019-04-14T14:12:38.695Z,36.82
2019-04-14T14:15:12.386Z,37.01
2019-04-14T14:17:50.758Z,37.11
2019-04-14T14:20:52.537Z,36.70
2019-04-14T14:23:31.104Z,36.63
2019-04-14T14:26:08.224Z,36.54
2019-04-14T14:28:39.400Z,37.29
2019-04-14T14:31:10.157Z,37.30
2019-04-14T14:33:50.269Z,38.16
2019-04-14T14:36:27.024Z,37.80
2019-04-14T14:38:57.830Z,37.89
2019-04-14T14:41:28.752Z,36.99
2019-04-14T14:43:59.714Z,36.88
2019-04-14T14:46:53.815Z,36.02
2019-04-14T14:49:28.963Z,36.38
2019-04-14T14:52:02.451Z,36.53
2019-04-14T14:54:35.257Z,37.35
2019-04-14T14:57:06.140Z,37.58
2019-04-14T14:59:36.953Z,37.74
2019-04-14T15:02:15.543Z,37.41
2019-04-14T15:04:56.487Z,37.38
2019-04-14T15:07:27.199Z,37.78
2019-04-14T15:10:00.061Z,37.43
2019-04-14T15:12:30.792Z,37.48
2019-04-14T15:15:14.375Z,37.66
2019-04-14T15:17:45.238Z,37.36
2019-04-14T15:20:15.916Z,37.58
2019-04-14T15:22:52.386Z,36.90
2019-04-14T15:25:23.261Z,36.32
2019-04-14T15:27:55.204Z,36.52
2019-04-14T15:30:26.066Z,36.97
2019-04-14T15:32:58.940Z,37.01
2019-04-14T15:35:35.821Z,37.55
2019-04-14T15:38:30.200Z,38.00
2019-04-14T15:41:06.775Z,39.72
2019-04-14T15:43:46.733Z,40.40
2019-04-14T15:46:32.928Z,41.13
2019-04-14T15:49:03.874Z,41.53
2019-04-14T15:51:34.804Z,41.70
2019-04-14T15:54:05.753Z,40.76
2019-04-14T15:56:38.635Z,41.48
2019-04-14T15:59:11.206Z,40.89
2019-04-14T16:01:43.790Z,40.62
2019-04-14T16:04:28.637Z,40.46
2019-04-14T16:07:04.202Z,40.37
2019-04-14T16:09:36.776Z,40.09
2019-04-14T16:12:21.550Z,40.53
2019-04-14T16:28:27.827Z,41.07
2019-04-14T16:31:18.090Z,41.79
2019-04-14T16:34:02.764Z,41.77
2019-04-14T16:36:33.897Z,42.31
2019-04-14T16:39:16.198Z,42.43
2019-04-14T16:41:47.251Z,42.06
2019-04-14T16:44:19.311Z,41.93
2019-04-14T16:47:00.589Z,41.11
2019-04-14T16:49:31.645Z,41.37
2019-04-14T16:52:13.538Z,41.79
2019-04-14T16:54:46.084Z,41.88
2019-04-14T16:57:29.135Z,42.63
2019-04-14T17:00:11.695Z,42.08
2019-04-14T17:02:42.884Z,43.76
2019-04-14T17:05:14.961Z,43.28
2019-04-14T17:07:45.992Z,41.82
2019-04-14T17:10:17.031Z,42.55
2019-04-14T17:13:06.298Z,43.13
2019-04-14T17:15:59.264Z,46.31
2019-04-14T17:18:37.280Z,43.77
2019-04-14T17:21:20.589Z,42.43
2019-04-14T17:24:02.335Z,43.21
2019-04-14T17:26:33.934Z,42.99
2019-04-14T17:29:08.560Z,45.95
2019-04-14T17:31:59.474Z,44.79
2019-04-14T17:34:34.282Z,44.85
2019-04-14T17:37:22.860Z,45.09
2019-04-14T17:40:05.275Z,45.19
2019-04-14T17:42:39.999Z,45.62
2019-04-14T17:45:19.134Z,45.89
2019-04-14T17:47:51.797Z,46.70
2019-04-14T17:50:40.888Z,46.77
2019-04-14T17:53:09.956Z,46.73
2019-04-14T17:55:50.065Z,47.41
2019-04-14T17:58:26.066Z,46.88
2019-04-14T18:01:16.172Z,46.82
2019-04-14T18:03:50.286Z,47.41
2019-04-14T18:06:35.931Z,47.31
2019-04-14T18:09:12.063Z,47.07
2019-04-14T18:11:59.511Z,47.38
2019-04-14T18:14:51.882Z,47.37
2019-04-14T18:17:36.414Z,46.47
2019-04-14T18:20:13.642Z,46.64
2019-04-14T18:22:47.533Z,47.05
2019-04-14T18:25:23.411Z,47.09
2019-04-14T18:28:15.085Z,47.15
2019-04-14T18:30:59.614Z,48.24
2019-04-14T18:33:49.555Z,48.67
2019-04-14T18:36:24.954Z,48.50
2019-04-14T18:39:04.133Z,48.95
2019-04-14T18:41:45.246Z,48.68
2019-04-14T18:44:40.100Z,48.83
2019-04-14T18:47:38.450Z,48.58
2019-04-14T18:50:18.558Z,49.47
2019-04-14T18:53:07.918Z,48.49
2019-04-14T18:55:58.621Z,48.66
2019-04-14T18:58:38.260Z,48.67
2019-04-14T19:01:13.781Z,48.72
2019-04-14T19:03:45.048Z,49.52
2019-04-14T19:06:17.122Z,49.83
2019-04-14T19:08:48.094Z,49.18
2019-04-14T19:11:21.875Z,49.44
2019-04-14T19:13:57.438Z,49.62
2019-04-14T19:16:39.335Z,49.78
2019-04-14T19:19:10.061Z,49.85
2019-04-14T19:21:42.006Z,50.34
2019-04-14T19:24:13.356Z,49.91
2019-04-14T19:26:44.393Z,50.30
2019-04-14T19:29:17.647Z,50.56
2019-04-14T19:31:48.641Z,49.72
2019-04-14T19:34:27.021Z,50.04
2019-04-14T19:36:58.113Z,50.21
2019-04-14T19:39:34.565Z,50.16
2019-04-14T19:42:05.596Z,49.72
2019-04-14T19:44:38.548Z,50.49
2019-04-14T19:47:09.543Z,50.72
2019-04-14T19:49:41.688Z,51.39
2019-04-14T19:52:12.635Z,51.18
2019-04-14T19:54:45.671Z,51.65
2019-04-14T19:57:18.318Z,51.81
2019-04-14T19:59:52.500Z,52.31
2019-04-14T20:02:32.670Z,52.54
2019-04-14T20:05:03.914Z,52.45
2019-04-14T20:07:34.852Z,53.30
2019-04-14T20:10:06.957Z,53.53
2019-04-14T20:12:37.921Z,53.97
2019-04-14T20:15:10.876Z,53.93
2019-04-14T20:17:52.357Z,54.08
2019-04-14T20:20:29.105Z,54.16
2019-04-14T20:23:01.912Z,54.87
2019-04-14T20:25:44.823Z,54.99
2019-04-14T20:28:17.394Z,54.95
2019-04-14T20:31:02.650Z,54.75
2019-04-14T20:33:34.845Z,54.99
2019-04-14T20:36:13.511Z,55.57
2019-04-14T20:38:47.973Z,56.16
2019-04-14T20:41:20.029Z,56.41
2019-04-14T20:43:51.158Z,56.12
2019-04-14T20:46:22.094Z,55.72
2019-04-14T20:48:52.896Z,55.96
2019-04-14T20:51:24.694Z,55.77
2019-04-14T20:53:55.334Z,55.72
2019-04-14T20:56:26.097Z,55.79
2019-04-14T20:59:00.472Z,55.89
2019-04-14T21:01:32.816Z,55.59
2019-04-14T21:04:14.404Z,55.98
2019-04-14T21:07:02.685Z,56.70
2019-04-14T21:09:38.546Z,56.54
2019-04-14T21:12:10.874Z,57.18
2019-04-14T21:14:53.348Z,56.89
2019-04-14T21:17:25.660Z,56.78
2019-04-14T21:20:01.008Z,58.16
2019-04-14T21:22:51.164Z,58.67
2019-04-14T21:25:25.964Z,58.37
2019-04-14T21:28:01.417Z,57.69
2019-04-14T21:30:37.789Z,57.55
2019-04-14T21:33:10.061Z,58.36
2019-04-14T21:35:51.453Z,58.38
2019-04-14T21:38:26.714Z,58.61
2019-04-14T21:41:13.325Z,59.22
2019-04-14T21:43:55.793Z,59.41
2019-04-14T21:46:32.613Z,59.59
2019-04-14T21:49:04.306Z,59.49
2019-04-14T21:52:00.225Z,59.67
2019-04-14T21:54:36.038Z,60.14
2019-04-14T21:57:14.348Z,60.67
2019-04-14T22:00:03.067Z,60.36
2019-04-14T22:02:53.442Z,60.42
2019-04-14T22:05:28.480Z,60.42
2019-04-14T22:08:11.252Z,60.59
2019-04-14T22:10:43.478Z,60.46
2019-04-14T22:13:19.410Z,59.65
2019-04-14T22:15:49.996Z,59.52
2019-04-14T22:18:22.769Z,60.46
2019-04-14T22:20:53.454Z,60.40
2019-04-14T22:23:24.125Z,60.32
2019-04-14T22:25:54.776Z,59.85
2019-04-14T22:28:43.047Z,59.80
2019-04-14T22:31:18.923Z,59.47
2019-04-14T22:34:08.883Z,59.94
2019-04-14T22:39:50.179Z,60.85
2019-04-14T22:42:26.890Z,60.53
2019-04-14T22:44:58.049Z,60.25
2019-04-14T22:47:30.122Z,60.32
2019-04-14T22:50:02.027Z,59.73
2019-04-14T22:52:32.701Z,60.58
2019-04-14T22:55:04.088Z,60.96
2019-04-14T22:57:34.811Z,60.84
2019-04-14T23:00:07.652Z,60.79
2019-04-14T23:02:50.598Z,60.69
2019-04-14T23:05:38.060Z,60.79
2019-04-14T23:08:13.300Z,61.41
2019-04-14T23:10:57.752Z,61.52
2019-04-14T23:13:49.432Z,62.55
2019-04-14T23:16:35.901Z,62.35
2019-04-14T23:19:08.145Z,62.91
2019-04-14T23:21:43.483Z,62.81
2019-04-14T23:24:27.960Z,62.35
2019-04-14T23:27:03.677Z,63.09
2019-04-14T23:29:36.364Z,63.71
2019-04-14T23:32:08.157Z,63.01
2019-04-14T23:34:38.776Z,63.02
2019-04-14T23:37:11.534Z,63.19
2019-04-14T23:39:42.258Z,62.86
2019-04-14T23:42:22.031Z,63.15
2019-04-14T23:44:55.956Z,62.53
2019-04-14T23:47:30.241Z,62.59
2019-04-14T23:50:00.907Z,62.63
2019-04-14T23:52:32.638Z,62.84
2019-04-14T23:55:03.444Z,63.12
2019-04-14T23:57:34.121Z,62.68
